sensor_id;sensor_type;location;lat;lon;timestamp;P1;P2;P0
72023;PMS5003;59889;50.700;5.440;2023-10-31T00:02:15;1;1;
72023;PMS5003;59889;50.700;5.440;2023-10-31T00:04:40;0;0;
72023;PMS5003;59889;50.700;5.440;2023-10-31T00:07:05;1;1;
72023;PMS5003;59889;50.700;5.440;2023-10-31T00:09:30;0;0;
72023;PMS5003;59889;50.700;5.440;2023-10-31T00:11:55;0;0;
72023;PMS5003;59889;50.700;5.440;2023-10-31T00:14:20;0;0;
72023;PMS5003;59889;50.700;5.440;2023-10-31T00:16:45;0;0;
72023;PMS5003;59889;50.700;5.440;2023-10-31T00:19:10;0;0;
72023;PMS5003;59889;50.700;5.440;2023-10-31T00:21:36;1;0;
72023;PMS5003;59889;50.700;5.440;2023-10-31T00:24:00;1;0;
72023;PMS5003;59889;50.700;5.440;2023-10-31T00:26:25;1;1;
72023;PMS5003;59889;50.700;5.440;2023-10-31T00:28:50;1;1;
72023;PMS5003;59889;50.700;5.440;2023-10-31T00:31:15;0;0;
72023;PMS5003;59889;50.700;5.440;2023-10-31T00:33:40;0;0;
72023;PMS5003;59889;50.700;5.440;2023-10-31T00:36:05;0;0;
72023;PMS5003;59889;50.700;5.440;2023-10-31T00:38:30;1;1;
72023;PMS5003;59889;50.700;5.440;2023-10-31T00:40:55;1;1;
72023;PMS5003;59889;50.700;5.440;2023-10-31T00:43:20;0;0;
72023;PMS5003;59889;50.700;5.440;2023-10-31T00:45:45;0;0;
72023;PMS5003;59889;50.700;5.440;2023-10-31T00:48:10;0;0;
72023;PMS5003;59889;50.700;5.440;2023-10-31T00:50:35;0;0;
72023;PMS5003;59889;50.700;5.440;2023-10-31T00:53:00;1;1;
72023;PMS5003;59889;50.700;5.440;2023-10-31T00:55:25;1;1;
72023;PMS5003;59889;50.700;5.440;2023-10-31T00:57:50;1;1;
72023;PMS5003;59889;50.700;5.440;2023-10-31T01:00:16;0;0;
72023;PMS5003;59889;50.700;5.440;2023-10-31T01:02:40;1;1;
72023;PMS5003;59889;50.700;5.440;2023-10-31T01:05:06;0;0;
72023;PMS5003;59889;50.700;5.440;2023-10-31T01:07:31;1;1;
72023;PMS5003;59889;50.700;5.440;2023-10-31T01:09:56;0;0;
72023;PMS5003;59889;50.700;5.440;2023-10-31T01:12:21;0;0;
72023;PMS5003;59889;50.700;5.440;2023-10-31T01:14:46;0;0;
72023;PMS5003;59889;50.700;5.440;2023-10-31T01:17:11;0;0;
72023;PMS5003;59889;50.700;5.440;2023-10-31T01:19:36;1;1;
72023;PMS5003;59889;50.700;5.440;2023-10-31T01:22:01;0;0;
72023;PMS5003;59889;50.700;5.440;2023-10-31T01:24:26;1;1;
72023;PMS5003;59889;50.700;5.440;2023-10-31T01:26:51;0;0;
72023;PMS5003;59889;50.700;5.440;2023-10-31T01:29:16;0;0;
72023;PMS5003;59889;50.700;5.440;2023-10-31T01:31:41;0;0;
72023;PMS5003;59889;50.700;5.440;2023-10-31T01:34:06;1;1;
72023;PMS5003;59889;50.700;5.440;2023-10-31T01:36:31;0;0;
72023;PMS5003;59889;50.700;5.440;2023-10-31T01:38:56;1;1;
72023;PMS5003;59889;50.700;5.440;2023-10-31T01:41:21;0;0;
72023;PMS5003;59889;50.700;5.440;2023-10-31T01:43:46;0;0;
72023;PMS5003;59889;50.700;5.440;2023-10-31T01:46:11;0;0;
72023;PMS5003;59889;50.700;5.440;2023-10-31T01:48:36;0;0;
72023;PMS5003;59889;50.700;5.440;2023-10-31T01:51:02;1;0;
72023;PMS5003;59889;50.700;5.440;2023-10-31T01:53:26;0;0;
72023;PMS5003;59889;50.700;5.440;2023-10-31T01:55:51;0;0;
72023;PMS5003;59889;50.700;5.440;2023-10-31T01:58:16;0;0;
72023;PMS5003;59889;50.700;5.440;2023-10-31T02:00:41;0;0;
72023;PMS5003;59889;50.700;5.440;2023-10-31T02:03:06;1;1;
72023;PMS5003;59889;50.700;5.440;2023-10-31T02:05:31;0;0;
72023;PMS5003;59889;50.700;5.440;2023-10-31T02:07:56;1;1;
72023;PMS5003;59889;50.700;5.440;2023-10-31T02:10:21;1;1;
72023;PMS5003;59889;50.700;5.440;2023-10-31T02:12:46;1;0;
72023;PMS5003;59889;50.700;5.440;2023-10-31T02:15:12;0;0;
72023;PMS5003;59889;50.700;5.440;2023-10-31T02:17:36;1;1;
72023;PMS5003;59889;50.700;5.440;2023-10-31T02:20:01;0;0;
72023;PMS5003;59889;50.700;5.440;2023-10-31T02:22:26;0;0;
72023;PMS5003;59889;50.700;5.440;2023-10-31T02:24:51;0;0;
72023;PMS5003;59889;50.700;5.440;2023-10-31T02:27:17;0;0;
72023;PMS5003;59889;50.700;5.440;2023-10-31T02:29:41;0;0;
72023;PMS5003;59889;50.700;5.440;2023-10-31T02:32:06;0;0;
72023;PMS5003;59889;50.700;5.440;2023-10-31T02:34:31;0;0;
72023;PMS5003;59889;50.700;5.440;2023-10-31T02:36:56;0;0;
72023;PMS5003;59889;50.700;5.440;2023-10-31T02:39:21;0;0;
72023;PMS5003;59889;50.700;5.440;2023-10-31T02:41:46;0;0;
72023;PMS5003;59889;50.700;5.440;2023-10-31T02:44:11;0;0;
72023;PMS5003;59889;50.700;5.440;2023-10-31T02:46:37;0;0;
72023;PMS5003;59889;50.700;5.440;2023-10-31T02:49:01;0;0;
72023;PMS5003;59889;50.700;5.440;2023-10-31T02:51:26;0;0;
72023;PMS5003;59889;50.700;5.440;2023-10-31T02:53:51;0;0;
72023;PMS5003;59889;50.700;5.440;2023-10-31T02:56:16;0;0;
72023;PMS5003;59889;50.700;5.440;2023-10-31T02:58:42;0;0;
72023;PMS5003;59889;50.700;5.440;2023-10-31T03:01:06;1;1;
72023;PMS5003;59889;50.700;5.440;2023-10-31T03:03:31;1;0;
72023;PMS5003;59889;50.700;5.440;2023-10-31T03:05:56;0;0;
72023;PMS5003;59889;50.700;5.440;2023-10-31T03:08:21;0;0;
72023;PMS5003;59889;50.700;5.440;2023-10-31T03:10:47;0;0;
72023;PMS5003;59889;50.700;5.440;2023-10-31T03:13:11;0;0;
72023;PMS5003;59889;50.700;5.440;2023-10-31T03:15:36;0;0;
72023;PMS5003;59889;50.700;5.440;2023-10-31T03:18:01;0;0;
72023;PMS5003;59889;50.700;5.440;2023-10-31T03:20:27;0;0;
72023;PMS5003;59889;50.700;5.440;2023-10-31T03:22:51;0;0;
72023;PMS5003;59889;50.700;5.440;2023-10-31T03:25:17;0;0;
72023;PMS5003;59889;50.700;5.440;2023-10-31T03:27:42;0;0;
72023;PMS5003;59889;50.700;5.440;2023-10-31T03:30:07;0;0;
72023;PMS5003;59889;50.700;5.440;2023-10-31T03:32:32;0;0;
72023;PMS5003;59889;50.700;5.440;2023-10-31T03:34:57;1;0;
72023;PMS5003;59889;50.700;5.440;2023-10-31T03:37:22;0;0;
72023;PMS5003;59889;50.700;5.440;2023-10-31T03:39:47;0;0;
72023;PMS5003;59889;50.700;5.440;2023-10-31T03:42:12;1;1;
72023;PMS5003;59889;50.700;5.440;2023-10-31T03:44:37;0;0;
72023;PMS5003;59889;50.700;5.440;2023-10-31T03:47:02;0;0;
72023;PMS5003;59889;50.700;5.440;2023-10-31T03:49:27;0;0;
72023;PMS5003;59889;50.700;5.440;2023-10-31T03:51:52;1;1;
72023;PMS5003;59889;50.700;5.440;2023-10-31T03:54:17;0;0;
72023;PMS5003;59889;50.700;5.440;2023-10-31T03:56:42;0;0;
72023;PMS5003;59889;50.700;5.440;2023-10-31T03:59:07;0;0;
72023;PMS5003;59889;50.700;5.440;2023-10-31T04:01:32;1;1;
72023;PMS5003;59889;50.700;5.440;2023-10-31T04:03:57;0;0;
72023;PMS5003;59889;50.700;5.440;2023-10-31T04:06:22;0;0;
72023;PMS5003;59889;50.700;5.440;2023-10-31T04:08:47;1;1;
72023;PMS5003;59889;50.700;5.440;2023-10-31T04:11:12;0;0;
72023;PMS5003;59889;50.700;5.440;2023-10-31T04:13:37;0;0;
72023;PMS5003;59889;50.700;5.440;2023-10-31T04:16:02;0;0;
72023;PMS5003;59889;50.700;5.440;2023-10-31T04:18:27;0;0;
72023;PMS5003;59889;50.700;5.440;2023-10-31T04:20:52;0;0;
72023;PMS5003;59889;50.700;5.440;2023-10-31T04:23:17;0;0;
72023;PMS5003;59889;50.700;5.440;2023-10-31T04:25:42;0;0;
72023;PMS5003;59889;50.700;5.440;2023-10-31T04:28:07;0;0;
72023;PMS5003;59889;50.700;5.440;2023-10-31T04:30:32;1;1;
72023;PMS5003;59889;50.700;5.440;2023-10-31T04:32:57;0;0;
72023;PMS5003;59889;50.700;5.440;2023-10-31T04:35:22;0;0;
72023;PMS5003;59889;50.700;5.440;2023-10-31T04:37:47;0;0;
72023;PMS5003;59889;50.700;5.440;2023-10-31T04:40:12;1;1;
72023;PMS5003;59889;50.700;5.440;2023-10-31T04:42:38;0;0;
72023;PMS5003;59889;50.700;5.440;2023-10-31T04:45:02;1;1;
72023;PMS5003;59889;50.700;5.440;2023-10-31T04:47:28;0;0;
72023;PMS5003;59889;50.700;5.440;2023-10-31T04:49:52;1;0;
72023;PMS5003;59889;50.700;5.440;2023-10-31T04:52:17;0;0;
72023;PMS5003;59889;50.700;5.440;2023-10-31T04:54:42;0;0;
72023;PMS5003;59889;50.700;5.440;2023-10-31T04:57:07;0;0;
72023;PMS5003;59889;50.700;5.440;2023-10-31T04:59:32;0;0;
72023;PMS5003;59889;50.700;5.440;2023-10-31T05:01:57;1;0;
72023;PMS5003;59889;50.700;5.440;2023-10-31T05:04:22;0;0;
72023;PMS5003;59889;50.700;5.440;2023-10-31T05:06:48;0;0;
72023;PMS5003;59889;50.700;5.440;2023-10-31T05:09:14;0;0;
72023;PMS5003;59889;50.700;5.440;2023-10-31T05:11:37;0;0;
72023;PMS5003;59889;50.700;5.440;2023-10-31T05:14:02;1;1;
72023;PMS5003;59889;50.700;5.440;2023-10-31T05:16:27;0;0;
72023;PMS5003;59889;50.700;5.440;2023-10-31T05:18:52;1;1;
72023;PMS5003;59889;50.700;5.440;2023-10-31T05:21:18;1;1;
72023;PMS5003;59889;50.700;5.440;2023-10-31T05:23:42;2;2;
72023;PMS5003;59889;50.700;5.440;2023-10-31T05:26:07;2;2;
72023;PMS5003;59889;50.700;5.440;2023-10-31T05:28:32;0;0;
72023;PMS5003;59889;50.700;5.440;2023-10-31T05:30:57;3;3;
72023;PMS5003;59889;50.700;5.440;2023-10-31T05:33:22;1;1;
72023;PMS5003;59889;50.700;5.440;2023-10-31T05:35:47;3;3;
72023;PMS5003;59889;50.700;5.440;2023-10-31T05:38:12;2;2;
72023;PMS5003;59889;50.700;5.440;2023-10-31T05:40:37;2;2;
72023;PMS5003;59889;50.700;5.440;2023-10-31T05:43:02;2;1;
72023;PMS5003;59889;50.700;5.440;2023-10-31T05:45:27;2;2;
72023;PMS5003;59889;50.700;5.440;2023-10-31T05:47:52;2;2;
72023;PMS5003;59889;50.700;5.440;2023-10-31T05:50:17;3;2;
72023;PMS5003;59889;50.700;5.440;2023-10-31T05:52:42;3;3;
72023;PMS5003;59889;50.700;5.440;2023-10-31T05:55:08;2;2;
72023;PMS5003;59889;50.700;5.440;2023-10-31T05:57:33;3;3;
72023;PMS5003;59889;50.700;5.440;2023-10-31T05:59:58;2;2;
72023;PMS5003;59889;50.700;5.440;2023-10-31T06:02:23;3;3;
72023;PMS5003;59889;50.700;5.440;2023-10-31T06:04:48;1;1;
72023;PMS5003;59889;50.700;5.440;2023-10-31T06:07:13;3;3;
72023;PMS5003;59889;50.700;5.440;2023-10-31T06:09:38;4;3;
72023;PMS5003;59889;50.700;5.440;2023-10-31T06:12:03;4;3;
72023;PMS5003;59889;50.700;5.440;2023-10-31T06:14:28;3;3;
72023;PMS5003;59889;50.700;5.440;2023-10-31T06:16:53;3;3;
72023;PMS5003;59889;50.700;5.440;2023-10-31T06:19:18;6;4;
72023;PMS5003;59889;50.700;5.440;2023-10-31T06:21:43;4;4;
72023;PMS5003;59889;50.700;5.440;2023-10-31T06:24:08;6;4;
72023;PMS5003;59889;50.700;5.440;2023-10-31T06:26:33;4;4;
72023;PMS5003;59889;50.700;5.440;2023-10-31T06:28:58;5;5;
72023;PMS5003;59889;50.700;5.440;2023-10-31T06:31:23;5;5;
72023;PMS5003;59889;50.700;5.440;2023-10-31T06:33:48;2;2;
72023;PMS5003;59889;50.700;5.440;2023-10-31T06:36:13;5;5;
72023;PMS5003;59889;50.700;5.440;2023-10-31T06:38:38;4;4;
72023;PMS5003;59889;50.700;5.440;2023-10-31T06:41:03;5;4;
72023;PMS5003;59889;50.700;5.440;2023-10-31T06:43:28;5;4;
72023;PMS5003;59889;50.700;5.440;2023-10-31T06:45:54;3;3;
72023;PMS5003;59889;50.700;5.440;2023-10-31T06:48:18;5;4;
72023;PMS5003;59889;50.700;5.440;2023-10-31T06:50:43;4;3;
72023;PMS5003;59889;50.700;5.440;2023-10-31T06:53:08;4;3;
72023;PMS5003;59889;50.700;5.440;2023-10-31T06:55:33;3;3;
72023;PMS5003;59889;50.700;5.440;2023-10-31T06:57:58;3;3;
72023;PMS5003;59889;50.700;5.440;2023-10-31T07:00:23;4;4;
72023;PMS5003;59889;50.700;5.440;2023-10-31T07:02:48;3;3;
72023;PMS5003;59889;50.700;5.440;2023-10-31T07:05:13;3;3;
72023;PMS5003;59889;50.700;5.440;2023-10-31T07:07:38;2;2;
72023;PMS5003;59889;50.700;5.440;2023-10-31T07:10:04;3;3;
72023;PMS5003;59889;50.700;5.440;2023-10-31T07:12:29;3;3;
72023;PMS5003;59889;50.700;5.440;2023-10-31T07:14:54;5;4;
72023;PMS5003;59889;50.700;5.440;2023-10-31T07:17:19;4;4;
72023;PMS5003;59889;50.700;5.440;2023-10-31T07:19:44;6;5;
72023;PMS5003;59889;50.700;5.440;2023-10-31T07:22:09;8;8;
72023;PMS5003;59889;50.700;5.440;2023-10-31T07:24:34;10;9;
72023;PMS5003;59889;50.700;5.440;2023-10-31T07:27:00;15;14;
72023;PMS5003;59889;50.700;5.440;2023-10-31T07:29:25;7;7;
72023;PMS5003;59889;50.700;5.440;2023-10-31T07:31:51;8;7;
72023;PMS5003;59889;50.700;5.440;2023-10-31T07:34:16;6;6;
72023;PMS5003;59889;50.700;5.440;2023-10-31T07:36:41;9;8;
72023;PMS5003;59889;50.700;5.440;2023-10-31T07:39:06;9;9;
72023;PMS5003;59889;50.700;5.440;2023-10-31T07:41:31;9;6;
72023;PMS5003;59889;50.700;5.440;2023-10-31T07:43:56;5;5;
72023;PMS5003;59889;50.700;5.440;2023-10-31T07:46:22;6;6;
72023;PMS5003;59889;50.700;5.440;2023-10-31T07:48:48;4;3;
72023;PMS5003;59889;50.700;5.440;2023-10-31T07:51:13;6;6;
72023;PMS5003;59889;50.700;5.440;2023-10-31T07:53:38;5;5;
72023;PMS5003;59889;50.700;5.440;2023-10-31T07:56:03;6;6;
72023;PMS5003;59889;50.700;5.440;2023-10-31T07:58:29;6;4;
72023;PMS5003;59889;50.700;5.440;2023-10-31T08:00:53;7;5;
72023;PMS5003;59889;50.700;5.440;2023-10-31T08:03:18;6;5;
72023;PMS5003;59889;50.700;5.440;2023-10-31T08:05:43;7;7;
72023;PMS5003;59889;50.700;5.440;2023-10-31T08:08:08;6;5;
72023;PMS5003;59889;50.700;5.440;2023-10-31T08:10:33;5;5;
72023;PMS5003;59889;50.700;5.440;2023-10-31T08:12:58;5;5;
72023;PMS5003;59889;50.700;5.440;2023-10-31T08:15:23;6;6;
72023;PMS5003;59889;50.700;5.440;2023-10-31T08:17:49;8;6;
72023;PMS5003;59889;50.700;5.440;2023-10-31T08:20:13;7;7;
72023;PMS5003;59889;50.700;5.440;2023-10-31T08:22:38;7;6;
72023;PMS5003;59889;50.700;5.440;2023-10-31T08:25:04;8;6;
72023;PMS5003;59889;50.700;5.440;2023-10-31T08:27:28;10;9;
72023;PMS5003;59889;50.700;5.440;2023-10-31T08:29:54;7;7;
72023;PMS5003;59889;50.700;5.440;2023-10-31T08:32:19;7;6;
72023;PMS5003;59889;50.700;5.440;2023-10-31T08:34:44;8;7;
72023;PMS5003;59889;50.700;5.440;2023-10-31T08:37:09;6;6;
72023;PMS5003;59889;50.700;5.440;2023-10-31T08:39:34;5;5;
72023;PMS5003;59889;50.700;5.440;2023-10-31T08:41:59;7;5;
72023;PMS5003;59889;50.700;5.440;2023-10-31T08:44:24;7;6;
72023;PMS5003;59889;50.700;5.440;2023-10-31T08:46:49;5;5;
72023;PMS5003;59889;50.700;5.440;2023-10-31T08:49:14;9;7;
72023;PMS5003;59889;50.700;5.440;2023-10-31T08:51:39;5;5;
72023;PMS5003;59889;50.700;5.440;2023-10-31T08:54:05;5;5;
72023;PMS5003;59889;50.700;5.440;2023-10-31T08:56:30;4;4;
72023;PMS5003;59889;50.700;5.440;2023-10-31T08:58:55;7;6;
72023;PMS5003;59889;50.700;5.440;2023-10-31T09:01:21;8;6;
72023;PMS5003;59889;50.700;5.440;2023-10-31T09:03:46;7;5;
72023;PMS5003;59889;50.700;5.440;2023-10-31T09:06:11;10;8;
72023;PMS5003;59889;50.700;5.440;2023-10-31T09:08:36;7;7;
72023;PMS5003;59889;50.700;5.440;2023-10-31T09:11:02;8;7;
72023;PMS5003;59889;50.700;5.440;2023-10-31T09:13:26;6;5;
72023;PMS5003;59889;50.700;5.440;2023-10-31T09:15:52;7;6;
72023;PMS5003;59889;50.700;5.440;2023-10-31T09:18:17;8;7;
72023;PMS5003;59889;50.700;5.440;2023-10-31T09:20:42;7;5;
72023;PMS5003;59889;50.700;5.440;2023-10-31T09:23:07;5;5;
72023;PMS5003;59889;50.700;5.440;2023-10-31T09:25:32;6;4;
72023;PMS5003;59889;50.700;5.440;2023-10-31T09:27:57;5;5;
72023;PMS5003;59889;50.700;5.440;2023-10-31T09:30:22;8;5;
72023;PMS5003;59889;50.700;5.440;2023-10-31T09:32:47;6;6;
72023;PMS5003;59889;50.700;5.440;2023-10-31T09:35:12;7;6;
72023;PMS5003;59889;50.700;5.440;2023-10-31T09:37:38;7;4;
72023;PMS5003;59889;50.700;5.440;2023-10-31T09:40:03;6;4;
72023;PMS5003;59889;50.700;5.440;2023-10-31T09:42:28;7;7;
72023;PMS5003;59889;50.700;5.440;2023-10-31T09:44:53;7;6;
72023;PMS5003;59889;50.700;5.440;2023-10-31T09:47:18;7;4;
72023;PMS5003;59889;50.700;5.440;2023-10-31T09:49:43;4;4;
72023;PMS5003;59889;50.700;5.440;2023-10-31T09:52:08;4;4;
72023;PMS5003;59889;50.700;5.440;2023-10-31T09:54:33;6;5;
72023;PMS5003;59889;50.700;5.440;2023-10-31T09:56:58;4;4;
72023;PMS5003;59889;50.700;5.440;2023-10-31T09:59:23;4;4;
72023;PMS5003;59889;50.700;5.440;2023-10-31T10:01:48;7;5;
72023;PMS5003;59889;50.700;5.440;2023-10-31T10:04:13;4;3;
72023;PMS5003;59889;50.700;5.440;2023-10-31T10:06:40;7;7;
72023;PMS5003;59889;50.700;5.440;2023-10-31T10:09:04;6;6;
72023;PMS5003;59889;50.700;5.440;2023-10-31T10:11:29;9;7;
72023;PMS5003;59889;50.700;5.440;2023-10-31T10:13:54;4;3;
72023;PMS5003;59889;50.700;5.440;2023-10-31T10:18:44;5;4;
72023;PMS5003;59889;50.700;5.440;2023-10-31T10:21:09;4;4;
72023;PMS5003;59889;50.700;5.440;2023-10-31T10:23:34;4;4;
72023;PMS5003;59889;50.700;5.440;2023-10-31T10:26:00;7;6;
72023;PMS5003;59889;50.700;5.440;2023-10-31T10:28:25;6;5;
72023;PMS5003;59889;50.700;5.440;2023-10-31T10:30:50;8;6;
72023;PMS5003;59889;50.700;5.440;2023-10-31T10:33:15;5;5;
72023;PMS5003;59889;50.700;5.440;2023-10-31T10:35:40;3;3;
72023;PMS5003;59889;50.700;5.440;2023-10-31T10:38:05;4;3;
72023;PMS5003;59889;50.700;5.440;2023-10-31T10:40:30;4;4;
72023;PMS5003;59889;50.700;5.440;2023-10-31T10:42:56;6;5;
72023;PMS5003;59889;50.700;5.440;2023-10-31T10:45:20;3;3;
72023;PMS5003;59889;50.700;5.440;2023-10-31T10:47:46;5;5;
72023;PMS5003;59889;50.700;5.440;2023-10-31T10:50:10;4;4;
72023;PMS5003;59889;50.700;5.440;2023-10-31T10:52:38;8;7;
72023;PMS5003;59889;50.700;5.440;2023-10-31T10:55:01;4;4;
72023;PMS5003;59889;50.700;5.440;2023-10-31T10:57:29;4;4;
72023;PMS5003;59889;50.700;5.440;2023-10-31T10:59:51;2;2;
72023;PMS5003;59889;50.700;5.440;2023-10-31T11:02:16;6;4;
72023;PMS5003;59889;50.700;5.440;2023-10-31T11:04:40;3;3;
72023;PMS5003;59889;50.700;5.440;2023-10-31T11:07:06;4;4;
72023;PMS5003;59889;50.700;5.440;2023-10-31T11:09:31;5;5;
72023;PMS5003;59889;50.700;5.440;2023-10-31T11:11:56;3;3;
72023;PMS5003;59889;50.700;5.440;2023-10-31T11:14:21;5;5;
72023;PMS5003;59889;50.700;5.440;2023-10-31T11:16:48;5;4;
72023;PMS5003;59889;50.700;5.440;2023-10-31T11:19:11;3;3;
72023;PMS5003;59889;50.700;5.440;2023-10-31T11:21:36;3;2;
72023;PMS5003;59889;50.700;5.440;2023-10-31T11:24:01;3;2;
72023;PMS5003;59889;50.700;5.440;2023-10-31T11:26:26;5;5;
72023;PMS5003;59889;50.700;5.440;2023-10-31T11:28:51;4;4;
72023;PMS5003;59889;50.700;5.440;2023-10-31T11:31:16;3;3;
72023;PMS5003;59889;50.700;5.440;2023-10-31T11:33:41;3;3;
72023;PMS5003;59889;50.700;5.440;2023-10-31T11:36:06;4;3;
72023;PMS5003;59889;50.700;5.440;2023-10-31T11:38:31;5;3;
72023;PMS5003;59889;50.700;5.440;2023-10-31T11:41:00;4;4;
72023;PMS5003;59889;50.700;5.440;2023-10-31T11:43:21;4;4;
72023;PMS5003;59889;50.700;5.440;2023-10-31T11:45:47;5;4;
72023;PMS5003;59889;50.700;5.440;2023-10-31T11:48:11;3;3;
72023;PMS5003;59889;50.700;5.440;2023-10-31T11:50:36;3;3;
72023;PMS5003;59889;50.700;5.440;2023-10-31T11:53:02;6;5;
72023;PMS5003;59889;50.700;5.440;2023-10-31T11:55:26;3;3;
72023;PMS5003;59889;50.700;5.440;2023-10-31T11:57:51;3;3;
72023;PMS5003;59889;50.700;5.440;2023-10-31T12:00:20;4;4;
72023;PMS5003;59889;50.700;5.440;2023-10-31T12:02:41;2;2;
72023;PMS5003;59889;50.700;5.440;2023-10-31T12:05:07;3;3;
72023;PMS5003;59889;50.700;5.440;2023-10-31T12:09:56;3;3;
72023;PMS5003;59889;50.700;5.440;2023-10-31T12:14:46;4;4;
72023;PMS5003;59889;50.700;5.440;2023-10-31T12:17:11;2;2;
72023;PMS5003;59889;50.700;5.440;2023-10-31T12:19:37;2;2;
72023;PMS5003;59889;50.700;5.440;2023-10-31T12:22:02;1;1;
72023;PMS5003;59889;50.700;5.440;2023-10-31T12:24:27;4;4;
72023;PMS5003;59889;50.700;5.440;2023-10-31T12:26:52;3;3;
72023;PMS5003;59889;50.700;5.440;2023-10-31T12:29:17;2;2;
72023;PMS5003;59889;50.700;5.440;2023-10-31T12:31:42;3;2;
72023;PMS5003;59889;50.700;5.440;2023-10-31T12:34:07;5;5;
72023;PMS5003;59889;50.700;5.440;2023-10-31T12:36:32;3;3;
72023;PMS5003;59889;50.700;5.440;2023-10-31T12:38:57;4;3;
72023;PMS5003;59889;50.700;5.440;2023-10-31T12:41:22;3;2;
72023;PMS5003;59889;50.700;5.440;2023-10-31T12:43:47;2;2;
72023;PMS5003;59889;50.700;5.440;2023-10-31T12:48:37;4;2;
72023;PMS5003;59889;50.700;5.440;2023-10-31T12:51:05;2;2;
72023;PMS5003;59889;50.700;5.440;2023-10-31T12:53:27;3;3;
72023;PMS5003;59889;50.700;5.440;2023-10-31T12:55:52;4;4;
72023;PMS5003;59889;50.700;5.440;2023-10-31T12:58:19;3;2;
72023;PMS5003;59889;50.700;5.440;2023-10-31T13:00:42;3;3;
72023;PMS5003;59889;50.700;5.440;2023-10-31T13:03:08;3;3;
72023;PMS5003;59889;50.700;5.440;2023-10-31T13:05:32;3;3;
72023;PMS5003;59889;50.700;5.440;2023-10-31T13:07:57;2;2;
72023;PMS5003;59889;50.700;5.440;2023-10-31T13:10:23;4;3;
72023;PMS5003;59889;50.700;5.440;2023-10-31T13:12:47;3;3;
72023;PMS5003;59889;50.700;5.440;2023-10-31T13:15:12;3;2;
72023;PMS5003;59889;50.700;5.440;2023-10-31T13:17:37;2;2;
72023;PMS5003;59889;50.700;5.440;2023-10-31T13:20:03;3;3;
72023;PMS5003;59889;50.700;5.440;2023-10-31T13:22:27;2;2;
72023;PMS5003;59889;50.700;5.440;2023-10-31T13:24:52;3;3;
72023;PMS5003;59889;50.700;5.440;2023-10-31T13:27:17;1;1;
72023;PMS5003;59889;50.700;5.440;2023-10-31T13:29:42;3;2;
72023;PMS5003;59889;50.700;5.440;2023-10-31T13:32:08;2;2;
72023;PMS5003;59889;50.700;5.440;2023-10-31T13:34:33;2;2;
72023;PMS5003;59889;50.700;5.440;2023-10-31T13:36:58;2;2;
72023;PMS5003;59889;50.700;5.440;2023-10-31T13:39:23;3;3;
72023;PMS5003;59889;50.700;5.440;2023-10-31T13:41:48;3;3;
72023;PMS5003;59889;50.700;5.440;2023-10-31T13:44:13;3;3;
72023;PMS5003;59889;50.700;5.440;2023-10-31T13:46:38;3;3;
72023;PMS5003;59889;50.700;5.440;2023-10-31T13:49:03;4;4;
72023;PMS5003;59889;50.700;5.440;2023-10-31T13:51:28;2;2;
72023;PMS5003;59889;50.700;5.440;2023-10-31T13:53:53;2;2;
72023;PMS5003;59889;50.700;5.440;2023-10-31T13:56:18;2;2;
72023;PMS5003;59889;50.700;5.440;2023-10-31T13:58:43;2;2;
72023;PMS5003;59889;50.700;5.440;2023-10-31T14:01:08;3;3;
72023;PMS5003;59889;50.700;5.440;2023-10-31T14:03:33;2;2;
72023;PMS5003;59889;50.700;5.440;2023-10-31T14:05:58;3;3;
72023;PMS5003;59889;50.700;5.440;2023-10-31T14:08:23;1;1;
72023;PMS5003;59889;50.700;5.440;2023-10-31T14:10:48;3;3;
72023;PMS5003;59889;50.700;5.440;2023-10-31T14:13:13;2;2;
72023;PMS5003;59889;50.700;5.440;2023-10-31T14:15:38;2;2;
72023;PMS5003;59889;50.700;5.440;2023-10-31T14:18:03;2;2;
72023;PMS5003;59889;50.700;5.440;2023-10-31T14:20:28;3;3;
72023;PMS5003;59889;50.700;5.440;2023-10-31T14:22:53;3;2;
72023;PMS5003;59889;50.700;5.440;2023-10-31T14:25:18;2;2;
72023;PMS5003;59889;50.700;5.440;2023-10-31T14:27:43;2;2;
72023;PMS5003;59889;50.700;5.440;2023-10-31T14:30:09;3;3;
72023;PMS5003;59889;50.700;5.440;2023-10-31T14:32:33;3;3;
72023;PMS5003;59889;50.700;5.440;2023-10-31T14:34:58;3;3;
72023;PMS5003;59889;50.700;5.440;2023-10-31T14:37:23;2;2;
72023;PMS5003;59889;50.700;5.440;2023-10-31T14:39:48;2;2;
72023;PMS5003;59889;50.700;5.440;2023-10-31T14:42:14;2;2;
72023;PMS5003;59889;50.700;5.440;2023-10-31T14:44:39;2;2;
72023;PMS5003;59889;50.700;5.440;2023-10-31T14:47:04;2;2;
72023;PMS5003;59889;50.700;5.440;2023-10-31T14:49:29;2;2;
72023;PMS5003;59889;50.700;5.440;2023-10-31T14:51:54;2;2;
72023;PMS5003;59889;50.700;5.440;2023-10-31T14:54:19;3;2;
72023;PMS5003;59889;50.700;5.440;2023-10-31T14:56:44;3;2;
72023;PMS5003;59889;50.700;5.440;2023-10-31T14:59:09;2;2;
72023;PMS5003;59889;50.700;5.440;2023-10-31T15:01:34;1;1;
72023;PMS5003;59889;50.700;5.440;2023-10-31T15:03:59;2;2;
72023;PMS5003;59889;50.700;5.440;2023-10-31T15:06:24;2;2;
72023;PMS5003;59889;50.700;5.440;2023-10-31T15:08:49;4;3;
72023;PMS5003;59889;50.700;5.440;2023-10-31T15:11:15;2;2;
72023;PMS5003;59889;50.700;5.440;2023-10-31T15:13:39;3;3;
72023;PMS5003;59889;50.700;5.440;2023-10-31T15:16:04;3;2;
72023;PMS5003;59889;50.700;5.440;2023-10-31T15:18:29;3;2;
72023;PMS5003;59889;50.700;5.440;2023-10-31T15:20:54;3;2;
72023;PMS5003;59889;50.700;5.440;2023-10-31T15:23:19;2;2;
72023;PMS5003;59889;50.700;5.440;2023-10-31T15:25:44;2;2;
72023;PMS5003;59889;50.700;5.440;2023-10-31T15:28:09;4;3;
72023;PMS5003;59889;50.700;5.440;2023-10-31T15:30:34;2;2;
72023;PMS5003;59889;50.700;5.440;2023-10-31T15:32:59;3;3;
72023;PMS5003;59889;50.700;5.440;2023-10-31T15:35:24;2;2;
72023;PMS5003;59889;50.700;5.440;2023-10-31T15:37:49;2;2;
72023;PMS5003;59889;50.700;5.440;2023-10-31T15:40:14;1;1;
72023;PMS5003;59889;50.700;5.440;2023-10-31T15:42:39;2;1;
72023;PMS5003;59889;50.700;5.440;2023-10-31T15:45:05;2;2;
72023;PMS5003;59889;50.700;5.440;2023-10-31T15:47:29;1;1;
72023;PMS5003;59889;50.700;5.440;2023-10-31T15:49:54;2;2;
72023;PMS5003;59889;50.700;5.440;2023-10-31T15:52:19;2;2;
72023;PMS5003;59889;50.700;5.440;2023-10-31T15:54:44;1;1;
72023;PMS5003;59889;50.700;5.440;2023-10-31T15:57:10;1;1;
72023;PMS5003;59889;50.700;5.440;2023-10-31T15:59:35;0;0;
72023;PMS5003;59889;50.700;5.440;2023-10-31T16:02:00;2;2;
72023;PMS5003;59889;50.700;5.440;2023-10-31T16:04:26;3;2;
72023;PMS5003;59889;50.700;5.440;2023-10-31T16:06:50;4;4;
72023;PMS5003;59889;50.700;5.440;2023-10-31T16:09:15;2;2;
72023;PMS5003;59889;50.700;5.440;2023-10-31T16:11:40;1;1;
72023;PMS5003;59889;50.700;5.440;2023-10-31T16:14:05;3;3;
72023;PMS5003;59889;50.700;5.440;2023-10-31T16:16:30;1;1;
72023;PMS5003;59889;50.700;5.440;2023-10-31T16:18:55;2;2;
72023;PMS5003;59889;50.700;5.440;2023-10-31T16:21:21;3;3;
72023;PMS5003;59889;50.700;5.440;2023-10-31T16:23:46;1;0;
72023;PMS5003;59889;50.700;5.440;2023-10-31T16:26:10;3;2;
72023;PMS5003;59889;50.700;5.440;2023-10-31T16:28:35;3;2;
72023;PMS5003;59889;50.700;5.440;2023-10-31T16:31:01;11;10;
72023;PMS5003;59889;50.700;5.440;2023-10-31T16:33:27;15;13;
72023;PMS5003;59889;50.700;5.440;2023-10-31T16:35:52;20;20;
72023;PMS5003;59889;50.700;5.440;2023-10-31T16:38:17;31;29;
72023;PMS5003;59889;50.700;5.440;2023-10-31T16:40:43;32;29;
72023;PMS5003;59889;50.700;5.440;2023-10-31T16:43:08;30;29;
72023;PMS5003;59889;50.700;5.440;2023-10-31T16:45:33;36;35;